createdAt,value
2018-06-04T00:00:00.995Z,29.41
2018-06-04T00:02:29.712Z,29.41
2018-06-04T00:04:58.479Z,29.42
2018-06-04T00:07:27.249Z,29.43
2018-06-04T00:09:56.109Z,29.42
2018-06-04T00:12:24.915Z,29.42
2018-06-04T00:14:53.713Z,29.42
2018-06-04T00:17:22.541Z,29.42
2018-06-04T00:19:51.303Z,29.43
2018-06-04T00:22:20.010Z,29.42
2018-06-04T00:24:48.849Z,29.43
2018-06-04T00:27:17.602Z,29.42
2018-06-04T00:29:46.367Z,29.41
2018-06-04T00:32:15.265Z,29.42
2018-06-04T00:34:44.016Z,29.43
2018-06-04T00:37:12.920Z,29.42
2018-06-04T00:39:41.721Z,29.41
2018-06-04T00:42:10.511Z,29.41
2018-06-04T00:44:39.286Z,29.41
2018-06-04T00:47:08.002Z,29.42
2018-06-04T00:49:36.786Z,29.42
2018-06-04T00:52:05.540Z,29.42
2018-06-04T00:54:34.354Z,29.41
2018-06-04T00:57:03.177Z,29.41
2018-06-04T00:59:31.938Z,29.41
2018-06-04T01:02:01.415Z,29.40
2018-06-04T01:04:30.138Z,29.42
2018-06-04T01:06:59.112Z,29.40
2018-06-04T01:09:27.845Z,29.41
2018-06-04T01:11:56.648Z,29.39
2018-06-04T01:14:25.377Z,29.40
2018-06-04T01:16:54.217Z,29.38
2018-06-04T01:19:23.005Z,29.38
2018-06-04T01:21:51.752Z,29.38
2018-06-04T01:24:20.473Z,29.38
2018-06-04T01:26:49.191Z,29.37
2018-06-04T01:29:17.940Z,29.38
2018-06-04T01:31:46.673Z,29.38
2018-06-04T01:34:15.416Z,29.37
2018-06-04T01:36:44.181Z,29.35
2018-06-04T01:39:13.090Z,29.35
2018-06-04T01:41:41.858Z,29.35
2018-06-04T01:44:10.601Z,29.35
2018-06-04T01:46:39.516Z,29.34
2018-06-04T01:49:08.424Z,29.36
2018-06-04T01:51:37.218Z,29.34
2018-06-04T01:54:06.094Z,29.33
2018-06-04T01:56:34.833Z,29.34
2018-06-04T01:59:03.592Z,29.33
2018-06-04T02:01:32.295Z,29.32
2018-06-04T02:04:01.068Z,29.31
2018-06-04T02:06:29.873Z,29.32
2018-06-04T02:08:58.595Z,29.31
2018-06-04T02:11:27.424Z,29.31
2018-06-04T02:13:56.218Z,29.30
2018-06-04T02:16:24.974Z,29.31
2018-06-04T02:18:53.768Z,29.29
2018-06-04T02:21:22.582Z,29.29
2018-06-04T02:23:51.299Z,29.30
2018-06-04T02:26:20.065Z,29.29
2018-06-04T02:28:48.799Z,29.28
2018-06-04T02:31:17.636Z,29.28
2018-06-04T02:33:46.363Z,29.29
2018-06-04T02:36:15.227Z,29.28
2018-06-04T02:38:44.023Z,29.27
2018-06-04T02:41:12.799Z,29.27
2018-06-04T02:43:41.527Z,29.27
2018-06-04T02:46:10.563Z,29.27
2018-06-04T02:48:39.313Z,29.25
2018-06-04T02:51:08.122Z,29.26
2018-06-04T02:53:37.022Z,29.26
2018-06-04T02:56:05.799Z,29.24
2018-06-04T02:58:34.626Z,29.25
2018-06-04T03:01:03.363Z,29.25
2018-06-04T03:03:32.271Z,29.24
2018-06-04T03:06:01.017Z,29.23
2018-06-04T03:08:29.827Z,29.23
2018-06-04T03:10:58.633Z,29.23
2018-06-04T03:13:27.346Z,29.23
2018-06-04T03:15:56.113Z,29.23
2018-06-04T03:18:24.888Z,29.23
2018-06-04T03:20:53.613Z,29.22
2018-06-04T03:23:22.315Z,29.22
2018-06-04T03:25:51.112Z,29.22
2018-06-04T03:28:19.836Z,29.22
2018-06-04T03:30:48.611Z,29.22
2018-06-04T03:33:17.465Z,29.22
2018-06-04T03:35:46.207Z,29.22
2018-06-04T03:38:14.909Z,29.21
2018-06-04T03:40:43.619Z,29.20
2018-06-04T03:43:12.506Z,29.21
2018-06-04T03:45:41.209Z,29.21
2018-06-04T03:48:10.011Z,29.20
2018-06-04T03:50:38.804Z,29.19
2018-06-04T03:53:07.662Z,29.19
2018-06-04T03:55:36.371Z,29.20
2018-06-04T03:58:05.108Z,29.20
2018-06-04T04:00:33.852Z,29.18
2018-06-04T04:03:02.622Z,29.17
2018-06-04T04:05:31.834Z,29.19
2018-06-04T04:08:00.615Z,29.18
2018-06-04T04:10:29.424Z,29.18
2018-06-04T04:12:58.182Z,29.17
2018-06-04T04:15:26.919Z,29.17
2018-06-04T04:17:55.669Z,29.17
2018-06-04T04:20:24.382Z,29.17
2018-06-04T04:22:53.250Z,29.16
2018-06-04T04:25:22.040Z,29.16
2018-06-04T04:27:50.814Z,29.16
2018-06-04T04:30:19.564Z,29.15
2018-06-04T04:32:49.424Z,29.15
2018-06-04T04:35:18.163Z,29.15
2018-06-04T04:37:46.918Z,29.15
2018-06-04T04:40:15.687Z,29.16
2018-06-04T04:42:44.410Z,29.16
2018-06-04T04:45:13.167Z,29.16
2018-06-04T04:47:41.970Z,29.16
2018-06-04T04:50:11.149Z,29.18
2018-06-04T04:52:39.904Z,29.18
2018-06-04T04:55:08.649Z,29.19
2018-06-04T04:57:37.406Z,29.19
2018-06-04T05:00:06.298Z,29.20
2018-06-04T05:02:35.046Z,29.22
2018-06-04T05:05:03.799Z,29.24
2018-06-04T05:07:32.614Z,29.25
2018-06-04T05:10:01.379Z,29.27
2018-06-04T05:12:30.209Z,29.30
2018-06-04T05:14:58.938Z,29.32
2018-06-04T05:17:27.621Z,29.34
2018-06-04T05:19:56.399Z,29.37
2018-06-04T05:22:25.167Z,29.41
2018-06-04T05:24:53.922Z,29.42
2018-06-04T05:27:22.760Z,29.47
2018-06-04T05:29:51.554Z,29.51
2018-06-04T05:32:20.342Z,29.53
2018-06-04T05:34:49.069Z,29.55
2018-06-04T05:37:17.950Z,29.59
2018-06-04T05:39:46.698Z,29.61
2018-06-04T05:42:15.610Z,29.63
2018-06-04T05:44:44.324Z,29.65
2018-06-04T05:47:13.059Z,29.68
2018-06-04T05:49:41.824Z,29.70
2018-06-04T05:52:10.795Z,29.71
2018-06-04T05:54:39.559Z,29.74
2018-06-04T05:57:08.633Z,29.76
2018-06-04T05:59:38.814Z,29.79
2018-06-04T06:02:08.963Z,29.80
2018-06-04T06:04:37.856Z,29.83
2018-06-04T06:07:06.606Z,29.85
2018-06-04T06:09:35.530Z,29.88
2018-06-04T06:12:04.271Z,29.90
2018-06-04T06:14:33.091Z,29.92
2018-06-04T06:17:01.843Z,29.93
2018-06-04T06:19:30.556Z,29.95
2018-06-04T06:21:59.429Z,29.98
2018-06-04T06:24:28.116Z,29.99
2018-06-04T06:26:56.830Z,30.01
2018-06-04T06:29:25.717Z,30.02
2018-06-04T06:31:54.534Z,30.02
2018-06-04T06:34:23.390Z,30.00
2018-06-04T06:36:52.109Z,30.01
2018-06-04T06:39:20.833Z,30.02
2018-06-04T06:41:50.130Z,30.03
2018-06-04T06:44:18.898Z,30.05
2018-06-04T06:46:47.620Z,30.06
2018-06-04T06:49:16.374Z,30.08
2018-06-04T06:51:45.105Z,30.11
2018-06-04T06:54:13.895Z,30.14
2018-06-04T06:56:42.663Z,30.16
2018-06-04T06:59:11.350Z,30.18
2018-06-04T07:01:40.090Z,30.20
2018-06-04T07:04:08.799Z,30.22
2018-06-04T07:06:38.930Z,30.25
2018-06-04T07:09:09.290Z,30.27
2018-06-04T07:11:38.038Z,30.29
2018-06-04T07:14:06.755Z,30.31
2018-06-04T07:16:36.106Z,30.33
2018-06-04T07:19:04.921Z,30.35
2018-06-04T07:21:33.767Z,30.37
2018-06-04T07:24:02.519Z,30.38
2018-06-04T07:26:31.268Z,30.37
2018-06-04T07:28:59.982Z,30.37
2018-06-04T07:31:28.698Z,30.37
2018-06-04T07:33:57.413Z,30.38
2018-06-04T07:36:26.128Z,30.40
2018-06-04T07:38:54.861Z,30.41
2018-06-04T07:41:23.697Z,30.45
2018-06-04T07:43:52.429Z,30.46
2018-06-04T07:46:21.117Z,30.46
2018-06-04T07:48:49.929Z,30.46
2018-06-04T07:51:18.634Z,30.46
2018-06-04T07:53:47.508Z,30.44
2018-06-04T07:56:16.372Z,30.45
2018-06-04T07:58:47.162Z,30.45
2018-06-04T08:01:16.133Z,30.46
2018-06-04T08:03:44.865Z,30.46
2018-06-04T08:06:13.635Z,30.46
2018-06-04T08:08:42.649Z,30.45
2018-06-04T08:11:11.563Z,30.44
2018-06-04T08:13:40.418Z,30.43
2018-06-04T08:16:09.255Z,30.44
2018-06-04T08:18:38.023Z,30.44
2018-06-04T08:21:06.932Z,30.43
2018-06-04T08:23:36.331Z,30.42
2018-06-04T08:26:05.092Z,30.41
2018-06-04T08:28:33.963Z,30.42
2018-06-04T08:31:02.837Z,30.41
2018-06-04T08:33:31.685Z,30.41
2018-06-04T08:36:00.564Z,30.43
2018-06-04T08:38:29.391Z,30.40
2018-06-04T08:40:58.154Z,30.40
2018-06-04T08:43:26.927Z,30.39
2018-06-04T08:45:56.119Z,30.38
2018-06-04T08:48:24.907Z,30.38
2018-06-04T08:50:54.569Z,30.36
2018-06-04T08:53:23.294Z,30.35
2018-06-04T08:55:52.361Z,30.34
2018-06-04T08:58:21.075Z,30.33
2018-06-04T09:00:49.871Z,30.32
2018-06-04T09:03:18.663Z,30.31
2018-06-04T09:05:47.497Z,30.30
2018-06-04T09:08:16.369Z,30.28
2018-06-04T09:10:45.098Z,30.28
2018-06-04T09:13:13.884Z,30.27
2018-06-04T09:15:42.709Z,30.27
2018-06-04T09:18:11.547Z,30.26
2018-06-04T09:20:40.280Z,30.26
2018-06-04T09:23:09.009Z,30.25
2018-06-04T09:25:37.843Z,30.24
2018-06-04T09:28:06.588Z,30.24
2018-06-04T09:30:35.307Z,30.22
2018-06-04T09:33:03.992Z,30.22
2018-06-04T09:35:32.739Z,30.22
2018-06-04T09:38:01.418Z,30.20
2018-06-04T09:40:30.150Z,30.20
2018-06-04T09:42:58.959Z,30.20
2018-06-04T09:45:27.637Z,30.19
2018-06-04T09:47:56.382Z,30.17
2018-06-04T09:50:25.135Z,30.17
2018-06-04T09:52:53.812Z,30.15
2018-06-04T09:55:22.519Z,30.15
2018-06-04T09:57:51.279Z,30.13
2018-06-04T10:00:25.238Z,30.13
2018-06-04T10:02:53.986Z,30.11
2018-06-04T10:05:22.685Z,30.10
2018-06-04T10:07:51.400Z,30.10
2018-06-04T10:10:20.099Z,30.09
2018-06-04T10:12:48.848Z,30.07
2018-06-04T10:15:17.604Z,30.07
2018-06-04T10:17:46.374Z,30.06
2018-06-04T10:20:15.216Z,30.04
2018-06-04T10:22:43.974Z,30.04
2018-06-04T10:25:12.721Z,30.03
2018-06-04T10:27:41.441Z,30.01
2018-06-04T10:30:10.145Z,29.99
2018-06-04T10:32:38.885Z,29.98
2018-06-04T10:35:07.641Z,29.98
2018-06-04T10:37:36.644Z,29.96
2018-06-04T10:40:05.532Z,29.96
2018-06-04T10:42:34.302Z,29.93
2018-06-04T10:45:03.012Z,29.93
2018-06-04T10:47:31.762Z,29.92
2018-06-04T10:50:00.439Z,29.91
2018-06-04T10:52:29.192Z,29.90
2018-06-04T10:54:57.951Z,29.89
2018-06-04T10:57:26.802Z,29.88
2018-06-04T10:59:55.531Z,29.87
2018-06-04T11:02:24.399Z,29.86
2018-06-04T11:04:53.125Z,29.85
2018-06-04T11:07:21.898Z,29.83
2018-06-04T11:09:50.694Z,29.82
2018-06-04T11:12:19.471Z,29.81
2018-06-04T11:14:48.190Z,29.81
2018-06-04T11:17:16.937Z,29.79
2018-06-04T11:19:45.693Z,29.78
2018-06-04T11:22:14.437Z,29.77
2018-06-04T11:24:43.226Z,29.77
2018-06-04T11:27:11.970Z,29.77
2018-06-04T11:29:40.783Z,29.76
2018-06-04T11:32:09.548Z,29.74
2018-06-04T11:34:38.300Z,29.73
2018-06-04T11:37:07.025Z,29.74
2018-06-04T11:39:35.941Z,29.73
2018-06-04T11:42:04.670Z,29.72
2018-06-04T11:44:33.380Z,29.72
2018-06-04T11:47:02.162Z,29.71
2018-06-04T11:49:30.876Z,29.70
2018-06-04T11:51:59.667Z,29.70
2018-06-04T11:54:28.367Z,29.70
2018-06-04T11:56:57.098Z,29.69
2018-06-04T11:59:25.823Z,29.68
2018-06-04T12:01:54.529Z,29.68
2018-06-04T12:04:23.218Z,29.68
2018-06-04T12:06:51.913Z,29.68
2018-06-04T12:09:20.665Z,29.66
2018-06-04T12:11:49.483Z,29.66
2018-06-04T12:14:18.185Z,29.66
2018-06-04T12:16:46.970Z,29.64
2018-06-04T12:19:16.653Z,29.65
2018-06-04T12:21:45.395Z,29.65
2018-06-04T12:24:14.180Z,29.64
2018-06-04T12:26:43.075Z,29.63
2018-06-04T12:29:11.886Z,29.62
2018-06-04T12:31:40.638Z,29.62
2018-06-04T12:34:09.394Z,29.63
2018-06-04T12:36:38.094Z,29.61
2018-06-04T12:39:09.157Z,29.61
2018-06-04T12:41:37.945Z,29.61
2018-06-04T12:44:06.735Z,29.61
2018-06-04T12:46:35.471Z,29.61
2018-06-04T12:49:04.292Z,29.60
2018-06-04T12:51:33.072Z,29.60
2018-06-04T12:54:01.825Z,29.61
2018-06-04T12:56:30.579Z,29.59
2018-06-04T12:58:59.394Z,29.60
2018-06-04T13:01:28.116Z,29.59
2018-06-04T13:03:56.924Z,29.58
2018-06-04T13:06:25.633Z,29.59
2018-06-04T13:08:54.461Z,29.58
2018-06-04T13:11:23.188Z,29.58
2018-06-04T13:13:51.979Z,29.56
2018-06-04T13:16:20.799Z,29.57
2018-06-04T13:18:49.600Z,29.57
2018-06-04T13:21:18.284Z,29.56
2018-06-04T13:23:47.064Z,29.56
2018-06-04T13:26:15.888Z,29.55
2018-06-04T13:28:44.627Z,29.55
2018-06-04T13:31:13.380Z,29.55
2018-06-04T13:33:42.229Z,29.54
2018-06-04T13:36:10.969Z,29.54
2018-06-04T13:38:39.707Z,29.55
2018-06-04T13:41:08.438Z,29.55
2018-06-04T13:43:37.241Z,29.54
2018-06-04T13:46:06.001Z,29.54
2018-06-04T13:48:34.730Z,29.53
2018-06-04T13:51:03.590Z,29.53
2018-06-04T13:53:32.444Z,29.53
2018-06-04T13:56:01.363Z,29.52
2018-06-04T13:58:30.163Z,29.52
2018-06-04T14:00:58.930Z,29.53
2018-06-04T14:03:27.684Z,29.52
2018-06-04T14:05:56.484Z,29.51
2018-06-04T14:08:25.256Z,29.51
2018-06-04T14:10:54.001Z,29.50
2018-06-04T14:13:22.734Z,29.50
2018-06-04T14:15:51.492Z,29.50
2018-06-04T14:18:20.246Z,29.49
2018-06-04T14:20:49.001Z,29.49
2018-06-04T14:23:17.835Z,29.49
2018-06-04T14:25:46.639Z,29.49
2018-06-04T14:28:15.565Z,29.48
2018-06-04T14:30:44.349Z,29.48
2018-06-04T14:33:13.075Z,29.48
2018-06-04T14:35:41.820Z,29.48
2018-06-04T14:38:10.611Z,29.48
2018-06-04T14:40:39.402Z,29.47
2018-06-04T14:43:08.156Z,29.47
2018-06-04T14:45:38.022Z,29.47
2018-06-04T14:48:06.830Z,29.46
2018-06-04T14:50:35.609Z,29.47
2018-06-04T14:53:04.350Z,29.46
2018-06-04T14:55:33.153Z,29.46
2018-06-04T14:58:01.913Z,29.46
2018-06-04T15:00:30.669Z,29.47
2018-06-04T15:02:59.410Z,29.45
2018-06-04T15:05:28.270Z,29.45
2018-06-04T15:07:57.315Z,29.46
2018-06-04T15:10:26.122Z,29.45
2018-06-04T15:12:54.867Z,29.45
2018-06-04T15:15:23.629Z,29.44
2018-06-04T15:17:52.451Z,29.43
2018-06-04T15:20:21.237Z,29.44
2018-06-04T15:22:50.069Z,29.44
2018-06-04T15:25:18.808Z,29.44
2018-06-04T15:27:47.551Z,29.43
2018-06-04T15:30:16.403Z,29.43
2018-06-04T15:32:45.174Z,29.43
2018-06-04T15:35:13.946Z,29.44
2018-06-04T15:37:42.753Z,29.43
2018-06-04T15:40:11.546Z,29.43
2018-06-04T15:42:40.282Z,29.42
2018-06-04T15:45:09.073Z,29.43
2018-06-04T15:47:37.897Z,29.44
2018-06-04T15:50:06.651Z,29.43
2018-06-04T15:52:35.424Z,29.44
2018-06-04T15:55:04.316Z,29.44
2018-06-04T15:57:34.431Z,29.43
2018-06-04T16:00:03.232Z,29.43
2018-06-04T16:02:31.975Z,29.43
2018-06-04T16:05:00.743Z,29.44
2018-06-04T16:07:29.521Z,29.43
2018-06-04T16:09:58.305Z,29.43
2018-06-04T16:12:27.052Z,29.44
2018-06-04T16:14:55.817Z,29.44
2018-06-04T16:17:24.637Z,29.43
2018-06-04T16:19:53.383Z,29.43
2018-06-04T16:22:22.958Z,29.42
2018-06-04T16:24:51.749Z,29.42
2018-06-04T16:27:20.489Z,29.42
2018-06-04T16:29:49.218Z,29.42
2018-06-04T16:32:18.012Z,29.41
2018-06-04T16:34:46.881Z,29.40
2018-06-04T16:37:15.665Z,29.40
2018-06-04T16:39:44.472Z,29.41
2018-06-04T16:42:13.264Z,29.41
2018-06-04T16:44:41.985Z,29.40
2018-06-04T16:47:10.725Z,29.41
2018-06-04T16:49:39.490Z,29.14
2018-06-04T16:52:08.231Z,29.40
2018-06-04T16:54:36.988Z,29.40
2018-06-04T16:57:05.920Z,29.38
2018-06-04T16:59:34.811Z,29.37
2018-06-04T17:02:03.853Z,29.36
2018-06-04T17:04:32.954Z,29.36
2018-06-04T17:07:01.825Z,29.36
2018-06-04T17:09:30.701Z,29.36
2018-06-04T17:11:59.742Z,29.35
2018-06-04T17:14:28.696Z,29.36
2018-06-04T17:16:57.710Z,29.36
2018-06-04T17:19:26.444Z,29.35
2018-06-04T17:21:55.174Z,29.36
2018-06-04T17:24:23.896Z,29.35
2018-06-04T17:26:52.637Z,29.35
2018-06-04T17:29:21.381Z,29.36
2018-06-04T17:31:50.977Z,29.35
2018-06-04T17:34:19.774Z,29.35
2018-06-04T17:36:48.562Z,29.35
2018-06-04T17:39:17.293Z,29.35
2018-06-04T17:41:46.055Z,29.34
2018-06-04T17:44:14.850Z,29.34
2018-06-04T17:46:43.682Z,29.34
2018-06-04T17:49:12.487Z,29.33
2018-06-04T17:51:41.263Z,29.33
2018-06-04T17:54:10.140Z,29.33
2018-06-04T17:56:38.949Z,29.33
2018-06-04T17:59:08.270Z,29.31
2018-06-04T18:01:37.496Z,29.31
2018-06-04T18:04:06.364Z,29.30
2018-06-04T18:06:35.211Z,29.30
2018-06-04T18:09:05.003Z,29.29
2018-06-04T18:11:33.789Z,29.29
2018-06-04T18:14:02.696Z,29.28
2018-06-04T18:16:31.456Z,29.27
2018-06-04T18:19:00.248Z,29.27
2018-06-04T18:21:29.057Z,29.26
2018-06-04T18:23:57.965Z,29.25
2018-06-04T18:26:26.818Z,29.24
2018-06-04T18:28:55.755Z,29.24
2018-06-04T18:31:24.519Z,29.24
2018-06-04T18:33:53.433Z,29.23
2018-06-04T18:36:22.246Z,29.22
2018-06-04T18:38:51.014Z,29.23
2018-06-04T18:41:19.758Z,29.22
2018-06-04T18:43:48.580Z,29.21
2018-06-04T18:46:17.502Z,29.21
2018-06-04T18:48:46.260Z,29.20
2018-06-04T18:51:15.027Z,29.19
2018-06-04T18:53:43.792Z,29.18
2018-06-04T18:56:12.654Z,29.18
2018-06-04T18:58:41.474Z,29.17
2018-06-04T19:01:10.286Z,29.17
2018-06-04T19:03:39.159Z,29.17
2018-06-04T19:06:08.058Z,29.16
2018-06-04T19:08:36.895Z,29.17
2018-06-04T19:11:05.688Z,29.15
2018-06-04T19:13:34.526Z,29.15
2018-06-04T19:16:03.603Z,29.15
2018-06-04T19:18:32.435Z,29.14
2018-06-04T19:21:01.259Z,29.15
2018-06-04T19:23:30.013Z,29.12
2018-06-04T19:25:58.837Z,29.12
2018-06-04T19:28:27.687Z,29.12
2018-06-04T19:30:56.589Z,29.12
2018-06-04T19:33:25.397Z,29.11
2018-06-04T19:35:54.132Z,29.11
2018-06-04T19:38:22.997Z,29.10
2018-06-04T19:40:56.193Z,29.10
2018-06-04T19:43:25.003Z,29.09
2018-06-04T19:45:53.845Z,29.09
2018-06-04T19:48:22.654Z,29.08
2018-06-04T19:50:51.473Z,29.08
2018-06-04T19:53:20.239Z,29.07
2018-06-04T19:55:49.090Z,29.07
2018-06-04T19:58:17.830Z,29.06
2018-06-04T20:00:46.630Z,29.06
2018-06-04T20:03:15.414Z,29.07
2018-06-04T20:05:44.135Z,29.05
2018-06-04T20:08:12.966Z,29.05
2018-06-04T20:10:41.729Z,29.05
2018-06-04T20:13:10.454Z,29.04
2018-06-04T20:15:39.230Z,29.03
2018-06-04T20:18:08.021Z,29.03
2018-06-04T20:20:36.851Z,29.03
2018-06-04T20:23:05.682Z,29.02
2018-06-04T20:25:34.475Z,29.03
2018-06-04T20:41:03.621Z,28.65
2018-06-04T20:43:32.363Z,28.64
2018-06-04T20:46:01.281Z,28.67
2018-06-04T20:48:30.101Z,28.70
2018-06-04T20:50:58.871Z,28.72
2018-06-04T20:53:27.614Z,28.74
2018-06-04T20:55:56.383Z,28.76
2018-06-04T20:58:25.221Z,28.77
2018-06-04T21:00:53.950Z,28.79
2018-06-04T21:03:22.693Z,28.81
2018-06-04T21:05:51.504Z,28.82
2018-06-04T21:08:20.254Z,28.83
2018-06-04T21:10:48.985Z,28.83
2018-06-04T21:13:17.799Z,28.83
2018-06-04T21:15:46.536Z,28.83
2018-06-04T21:18:15.253Z,28.83
2018-06-04T21:20:44.051Z,28.84
2018-06-04T21:23:12.891Z,28.84
2018-06-04T21:25:41.638Z,28.84
2018-06-04T21:28:10.479Z,28.83
2018-06-04T21:30:39.328Z,28.84
2018-06-04T21:33:08.122Z,28.83
2018-06-04T21:35:37.392Z,28.83
2018-06-04T21:38:06.118Z,28.82
2018-06-04T21:40:34.851Z,28.82
2018-06-04T21:43:03.660Z,28.82
2018-06-04T21:45:32.687Z,28.82
2018-06-04T21:48:01.741Z,28.81
2018-06-04T21:50:30.645Z,28.81
2018-06-04T21:52:59.451Z,28.80
2018-06-04T21:55:28.207Z,28.80
2018-06-04T21:57:56.907Z,28.78
2018-06-04T22:00:25.660Z,28.78
2018-06-04T22:02:54.383Z,28.78
2018-06-04T22:05:23.107Z,28.76
2018-06-04T22:07:51.882Z,28.75
2018-06-04T22:10:20.636Z,28.75
2018-06-04T22:12:49.370Z,28.74
2018-06-04T22:15:18.139Z,28.73
2018-06-04T22:17:46.961Z,28.74
2018-06-04T22:20:15.704Z,28.73
2018-06-04T22:22:44.682Z,28.72
2018-06-04T22:25:13.390Z,28.71
2018-06-04T22:27:42.158Z,28.70
2018-06-04T22:30:10.952Z,28.70
2018-06-04T22:32:39.753Z,28.70
2018-06-04T22:35:08.476Z,28.68
2018-06-04T22:37:37.287Z,28.68
2018-06-04T22:40:06.034Z,28.67
2018-06-04T22:42:34.798Z,28.66
2018-06-04T22:45:03.595Z,28.66
2018-06-04T22:47:32.345Z,28.64
2018-06-04T22:50:01.023Z,28.64
2018-06-04T22:52:29.739Z,28.63
2018-06-04T22:54:58.485Z,28.62
2018-06-04T22:57:27.215Z,28.62
2018-06-04T22:59:55.897Z,28.62
2018-06-04T23:02:24.620Z,28.60
2018-06-04T23:04:53.340Z,28.59
2018-06-04T23:07:22.114Z,28.58
2018-06-04T23:09:50.924Z,28.57
2018-06-04T23:12:19.687Z,28.57
2018-06-04T23:14:48.405Z,28.55
2018-06-04T23:17:17.132Z,28.55
2018-06-04T23:19:45.891Z,28.54
2018-06-04T23:22:14.617Z,28.54
2018-06-04T23:24:43.311Z,28.52
2018-06-04T23:27:12.061Z,28.52
2018-06-04T23:29:40.814Z,28.52
2018-06-04T23:32:09.566Z,28.51
2018-06-04T23:34:38.335Z,28.52
2018-06-04T23:37:07.049Z,28.51
2018-06-04T23:39:35.791Z,28.52
2018-06-04T23:42:04.502Z,28.50
2018-06-04T23:44:33.243Z,28.51
2018-06-04T23:47:02.046Z,28.50
2018-06-04T23:49:30.799Z,28.50
2018-06-04T23:51:59.539Z,28.48
2018-06-04T23:54:28.213Z,28.49
2018-06-04T23:56:56.886Z,28.48
2018-06-04T23:59:25.624Z,28.46
